createdAt,value
2022-10-16T00:02:36.387Z,99879.16
2022-10-16T00:07:39.039Z,99880.59
2022-10-16T00:12:43.005Z,99888.94
2022-10-16T00:17:45.611Z,99887.25
2022-10-16T00:22:48.217Z,99885.63
2022-10-16T00:27:52.117Z,99892.16
2022-10-16T00:32:54.840Z,99897.84
2022-10-16T00:37:57.540Z,99913.75
2022-10-16T00:43:01.519Z,99903.75
2022-10-16T00:48:04.247Z,99906.22
2022-10-16T00:53:06.941Z,99923.53
2022-10-16T00:58:11.406Z,99917.47
2022-10-16T01:03:29.743Z,99917.50
2022-10-16T01:08:36.669Z,99908.13
2022-10-16T01:13:43.624Z,99907.75
2022-10-16T01:18:48.848Z,99905.09
2022-10-16T01:23:57.089Z,99912.88
2022-10-16T01:29:06.006Z,99918.19
2022-10-16T01:34:14.983Z,99916.50
2022-10-16T01:39:18.417Z,99909.56
2022-10-16T01:44:24.387Z,99915.06
2022-10-16T01:49:30.171Z,99916.91
2022-10-16T01:54:34.478Z,99915.06
2022-10-16T01:59:42.965Z,99932.63
2022-10-16T02:04:48.731Z,99931.16
2022-10-16T02:09:51.619Z,99932.38
2022-10-16T02:14:55.857Z,99930.13
2022-10-16T02:19:58.835Z,99934.38
2022-10-16T02:25:05.236Z,99920.50
2022-10-16T02:30:15.151Z,99926.19
2022-10-16T02:35:19.591Z,99938.66
2022-10-16T02:40:25.192Z,99953.72
2022-10-16T02:45:30.148Z,99952.28
2022-10-16T02:50:32.787Z,99955.31
2022-10-16T02:55:35.428Z,99951.22
2022-10-16T03:00:39.492Z,99936.56
2022-10-16T03:05:42.150Z,99938.56
2022-10-16T03:10:44.935Z,99948.13
2022-10-16T03:15:49.426Z,99948.31
2022-10-16T03:20:52.081Z,99954.22
2022-10-16T03:25:55.037Z,99958.53
2022-10-16T03:30:58.985Z,99958.53
2022-10-16T03:36:01.786Z,99958.72
2022-10-16T03:41:04.799Z,99969.50
2022-10-16T03:46:08.797Z,99972.16
2022-10-16T03:51:11.547Z,99974.63
2022-10-16T03:56:14.180Z,99973.78
2022-10-16T04:01:18.278Z,99964.59
2022-10-16T04:06:20.875Z,99960.28
2022-10-16T04:11:23.533Z,99956.00
2022-10-16T04:16:27.535Z,99966.81
2022-10-16T04:21:30.235Z,99959.88
2022-10-16T04:26:33.822Z,99961.72
2022-10-16T04:31:37.759Z,99969.84
2022-10-16T04:36:40.334Z,99993.06
2022-10-16T04:41:42.886Z,100017.31
2022-10-16T04:46:46.812Z,99992.00
2022-10-16T04:51:49.486Z,100009.47
2022-10-16T04:56:52.919Z,100021.47
2022-10-16T05:01:57.174Z,100011.28
2022-10-16T05:06:59.791Z,100023.88
2022-10-16T05:12:04.403Z,100037.13
2022-10-16T05:17:08.374Z,100043.22
2022-10-16T05:22:11.055Z,100043.59
2022-10-16T05:27:19.674Z,100040.97
2022-10-16T05:32:23.702Z,100039.31
2022-10-16T05:37:26.509Z,100043.38
2022-10-16T05:42:29.420Z,100055.78
2022-10-16T05:47:34.267Z,100051.13
2022-10-16T05:52:37.004Z,100062.16
2022-10-16T05:57:39.685Z,100056.47
2022-10-16T06:02:43.669Z,100075.84
2022-10-16T06:07:46.260Z,100081.22
2022-10-16T06:12:48.912Z,100079.81
2022-10-16T06:17:52.876Z,100080.91
2022-10-16T06:22:55.525Z,100087.06
2022-10-16T06:27:58.163Z,100085.69
2022-10-16T06:33:02.155Z,100091.84
2022-10-16T06:38:04.816Z,100098.81
2022-10-16T06:43:07.549Z,100112.78
2022-10-16T06:48:11.598Z,100120.16
2022-10-16T06:53:14.185Z,100129.34
2022-10-16T06:58:16.841Z,100130.00
2022-10-16T07:03:20.810Z,100138.41
2022-10-16T07:08:23.399Z,100141.47
2022-10-16T07:13:26.241Z,100135.16
2022-10-16T07:23:34.111Z,100134.16
2022-10-16T07:28:36.778Z,100132.97
2022-10-16T07:33:42.811Z,100106.72
2022-10-16T07:38:46.000Z,100120.00
2022-10-16T07:43:49.198Z,100154.97
2022-10-16T07:48:53.468Z,100155.47
2022-10-16T07:53:56.250Z,100162.47
2022-10-16T07:58:58.982Z,100164.56
2022-10-16T08:04:02.977Z,100165.00
2022-10-16T08:09:05.979Z,100171.59
2022-10-16T08:14:08.682Z,100182.63
2022-10-16T08:19:12.866Z,100192.06
2022-10-16T08:24:15.519Z,100196.56
2022-10-16T08:29:18.139Z,100198.44
2022-10-16T08:34:22.094Z,100210.78
2022-10-16T08:39:24.863Z,100205.56
2022-10-16T08:44:37.070Z,100215.81
2022-10-16T08:49:43.505Z,100206.47
2022-10-16T08:54:49.417Z,100216.13
2022-10-16T08:59:52.322Z,100230.66
2022-10-16T09:05:04.456Z,100243.56
2022-10-16T09:10:16.207Z,100258.28
2022-10-16T09:15:25.796Z,100265.66
2022-10-16T09:20:34.999Z,100284.06
2022-10-16T09:25:40.452Z,100260.16
2022-10-16T09:30:43.415Z,100256.03
2022-10-16T09:35:49.187Z,100254.63
2022-10-16T09:40:58.901Z,100263.47
2022-10-16T09:46:07.763Z,100276.97
2022-10-16T09:51:20.270Z,100283.28
2022-10-16T09:56:25.279Z,100290.50
2022-10-16T10:01:32.713Z,100286.63
2022-10-16T10:06:39.001Z,100282.00
2022-10-16T10:11:51.806Z,100299.41
2022-10-16T10:17:03.381Z,100303.72
2022-10-16T10:22:17.921Z,100296.97
2022-10-16T10:27:20.790Z,100305.34
2022-10-16T10:32:30.640Z,100317.25
2022-10-16T10:37:45.721Z,100314.38
2022-10-16T10:42:52.401Z,100307.00
2022-10-16T10:48:05.162Z,100314.38
2022-10-16T10:53:18.053Z,100312.53
2022-10-16T10:58:59.338Z,100315.00
2022-10-16T11:04:21.799Z,100323.59
2022-10-16T11:09:28.177Z,100316.44
2022-10-16T11:14:35.542Z,100323.81
2022-10-16T11:19:43.865Z,100324.84
2022-10-16T11:24:51.999Z,100331.41
2022-10-16T11:29:58.748Z,100323.81
2022-10-16T11:35:05.008Z,100326.88
2022-10-16T11:40:21.338Z,100322.16
2022-10-16T11:45:29.623Z,100331.63
2022-10-16T11:50:36.910Z,100323.03
2022-10-16T11:55:46.051Z,100326.72
2022-10-16T12:00:55.507Z,100337.53
2022-10-16T12:06:08.935Z,100341.88
2022-10-16T12:11:25.674Z,100347.00
2022-10-16T12:16:28.256Z,100346.59
2022-10-16T12:21:32.623Z,100337.38
2022-10-16T12:26:40.086Z,100345.13
2022-10-16T12:31:57.292Z,100349.44
2022-10-16T12:37:11.487Z,100350.91
2022-10-16T12:42:25.873Z,100351.66
2022-10-16T12:47:39.081Z,100335.81
2022-10-16T12:52:41.955Z,100344.53
2022-10-16T12:58:00.133Z,100342.66
2022-10-16T13:03:35.377Z,100355.38
2022-10-16T13:08:52.611Z,100363.50
2022-10-16T13:14:17.083Z,100373.41
2022-10-16T13:19:26.730Z,100368.50
2022-10-16T13:24:44.332Z,100374.81
2022-10-16T13:29:56.247Z,100380.72
2022-10-16T13:34:59.284Z,100376.59
2022-10-16T13:40:11.499Z,100371.09
2022-10-16T13:45:21.242Z,100375.81
2022-10-16T13:50:24.266Z,100367.19
2022-10-16T13:55:27.146Z,100374.16
2022-10-16T14:00:31.387Z,100387.13
2022-10-16T14:05:34.390Z,100402.72
2022-10-16T14:10:37.312Z,100397.19
2022-10-16T14:15:41.563Z,100403.16
2022-10-16T14:20:44.446Z,100410.75
2022-10-16T14:25:47.145Z,100417.72
2022-10-16T14:30:55.703Z,100420.97
2022-10-16T14:36:04.131Z,100421.00
2022-10-16T14:41:07.529Z,100423.44
2022-10-16T14:46:15.233Z,100422.03
2022-10-16T14:51:19.224Z,100425.09
2022-10-16T14:56:23.404Z,100428.81
2022-10-16T15:01:27.554Z,100430.63
2022-10-16T15:06:30.394Z,100437.59
2022-10-16T15:11:33.943Z,100445.13
2022-10-16T15:16:38.243Z,100453.38
2022-10-16T15:21:50.593Z,100450.53
2022-10-16T15:26:53.241Z,100455.22
2022-10-16T15:31:55.899Z,100450.44
2022-10-16T15:37:00.786Z,100453.28
2022-10-16T15:42:03.625Z,100464.13
2022-10-16T15:47:06.536Z,100471.69
2022-10-16T15:52:10.649Z,100479.06
2022-10-16T15:57:13.266Z,100482.31
2022-10-16T16:02:15.916Z,100493.19
2022-10-16T16:07:20.185Z,100502.59
2022-10-16T16:12:22.891Z,100514.84
2022-10-16T16:17:25.741Z,100503.97
2022-10-16T16:22:30.821Z,100506.22
2022-10-16T16:27:35.322Z,100522.53
2022-10-16T16:32:38.106Z,100524.53
2022-10-16T16:37:42.058Z,100518.56
2022-10-16T16:42:44.712Z,100527.88
2022-10-16T16:47:47.370Z,100529.59
2022-10-16T16:52:51.428Z,100544.88
2022-10-16T16:57:54.468Z,100558.97
2022-10-16T17:02:57.500Z,100563.59
2022-10-16T17:08:01.471Z,100575.34
2022-10-16T17:13:04.181Z,100578.31
2022-10-16T17:18:06.950Z,100569.88
2022-10-16T17:23:12.019Z,100581.22
2022-10-16T17:28:15.358Z,100595.16
2022-10-16T17:33:18.147Z,100603.91
2022-10-16T17:38:22.784Z,100602.63
2022-10-16T17:43:25.762Z,100606.50
2022-10-16T17:48:28.606Z,100616.81
2022-10-16T17:53:33.177Z,100620.03
2022-10-16T17:58:36.053Z,100623.88
2022-10-16T18:03:38.747Z,100616.47
2022-10-16T18:08:42.688Z,100620.97
2022-10-16T18:13:45.541Z,100620.97
2022-10-16T18:18:48.294Z,100617.84
2022-10-16T18:23:52.485Z,100639.66
2022-10-16T18:28:56.812Z,100644.16
2022-10-16T18:33:59.643Z,100645.31
2022-10-16T18:39:09.151Z,100644.88
2022-10-16T18:44:13.152Z,100662.00
2022-10-16T18:49:15.843Z,100660.53
2022-10-16T18:54:19.853Z,100666.03
2022-10-16T18:59:22.588Z,100673.72
2022-10-16T19:04:25.270Z,100663.38
2022-10-16T19:09:29.349Z,100648.66
2022-10-16T19:14:32.758Z,100662.00
2022-10-16T19:19:35.929Z,100656.91
2022-10-16T19:24:40.154Z,100656.91
2022-10-16T19:29:42.970Z,100671.53
2022-10-16T19:34:46.869Z,100688.28
2022-10-16T19:39:51.687Z,100681.31
2022-10-16T19:44:54.425Z,100692.84
2022-10-16T19:49:57.060Z,100696.22
2022-10-16T19:55:01.073Z,100691.47
2022-10-16T20:00:05.045Z,100690.84
2022-10-16T20:05:10.258Z,100699.34
2022-10-16T20:10:14.247Z,100710.66
2022-10-16T20:15:16.878Z,100724.38
2022-10-16T20:20:19.559Z,100729.53
2022-10-16T20:25:23.551Z,100737.34
2022-10-16T20:30:26.201Z,100750.16
2022-10-16T20:35:29.026Z,100745.19
2022-10-16T20:40:35.273Z,100743.09
2022-10-16T20:45:37.858Z,100744.63
2022-10-16T20:50:41.004Z,100736.34
2022-10-16T20:55:44.951Z,100745.19
2022-10-16T21:00:47.526Z,100744.91
2022-10-16T21:05:50.113Z,100748.56
2022-10-16T21:10:54.129Z,100750.72
2022-10-16T21:15:56.695Z,100781.91
2022-10-16T21:20:59.382Z,100773.47
2022-10-16T21:26:03.423Z,100765.84
2022-10-16T21:31:12.857Z,100764.69
2022-10-16T21:36:17.205Z,100768.47
2022-10-16T21:41:22.875Z,100764.81
2022-10-16T21:46:27.009Z,100775.44
2022-10-16T21:51:31.135Z,100767.47
2022-10-16T21:56:35.544Z,100762.16
2022-10-16T22:01:38.185Z,100757.69
2022-10-16T22:06:41.205Z,100766.63
2022-10-16T22:11:45.740Z,100768.13
2022-10-16T22:16:48.906Z,100770.78
2022-10-16T22:21:54.531Z,100781.19
2022-10-16T22:26:58.474Z,100778.22
2022-10-16T22:32:01.238Z,100784.72
2022-10-16T22:37:03.890Z,100777.72
2022-10-16T22:42:08.150Z,100780.84
2022-10-16T22:47:10.929Z,100775.09
2022-10-16T22:52:15.198Z,100766.28
2022-10-16T22:57:19.156Z,100754.88
2022-10-16T23:02:21.804Z,100754.56
2022-10-16T23:07:24.394Z,100755.91
2022-10-16T23:12:28.780Z,100766.84
2022-10-16T23:17:31.710Z,100768.50
2022-10-16T23:22:34.330Z,100767.69
2022-10-16T23:27:38.414Z,100773.69
2022-10-16T23:32:41.600Z,100776.41
2022-10-16T23:37:44.261Z,100763.28
2022-10-16T23:42:48.229Z,100766.31
2022-10-16T23:47:51.015Z,100758.72
2022-10-16T23:52:53.696Z,100761.72
2022-10-16T23:57:57.766Z,100763.34
